sensor_id;sensor_type;location;lat;lon;timestamp;pressure;altitude;pressure_sealevel;temperature;humidity
11830;BME280;5972;42.134;24.718;2024-03-08T00:01:00;99921.38;;;7.16;100.00
11830;BME280;5972;42.134;24.718;2024-03-08T00:03:27;99899.78;;;6.98;100.00
11830;BME280;5972;42.134;24.718;2024-03-08T00:05:54;99896.66;;;7.05;100.00
11830;BME280;5972;42.134;24.718;2024-03-08T00:08:22;99913.00;;;7.17;100.00
11830;BME280;5972;42.134;24.718;2024-03-08T00:10:51;99911.94;;;7.27;100.00
11830;BME280;5972;42.134;24.718;2024-03-08T00:13:18;99900.25;;;7.40;100.00
11830;BME280;5972;42.134;24.718;2024-03-08T00:15:45;99902.31;;;7.43;100.00
11830;BME280;5972;42.134;24.718;2024-03-08T00:18:12;99894.88;;;7.40;100.00
11830;BME280;5972;42.134;24.718;2024-03-08T00:20:39;99883.00;;;7.41;100.00
11830;BME280;5972;42.134;24.718;2024-03-08T00:23:06;99897.91;;;7.56;100.00
11830;BME280;5972;42.134;24.718;2024-03-08T00:25:33;99897.75;;;7.61;100.00
11830;BME280;5972;42.134;24.718;2024-03-08T00:28:03;99895.06;;;7.52;100.00
11830;BME280;5972;42.134;24.718;2024-03-08T00:30:30;99883.66;;;7.46;100.00
11830;BME280;5972;42.134;24.718;2024-03-08T00:32:57;99897.56;;;7.48;100.00
11830;BME280;5972;42.134;24.718;2024-03-08T00:35:25;99899.13;;;7.32;100.00
11830;BME280;5972;42.134;24.718;2024-03-08T00:37:52;99897.81;;;7.21;100.00
11830;BME280;5972;42.134;24.718;2024-03-08T00:40:21;99901.66;;;7.29;100.00
11830;BME280;5972;42.134;24.718;2024-03-08T00:42:49;99899.56;;;7.26;100.00
11830;BME280;5972;42.134;24.718;2024-03-08T00:45:17;99906.53;;;7.27;100.00
11830;BME280;5972;42.134;24.718;2024-03-08T00:47:44;99904.25;;;7.51;100.00
11830;BME280;5972;42.134;24.718;2024-03-08T00:50:11;99905.97;;;7.47;100.00
11830;BME280;5972;42.134;24.718;2024-03-08T00:52:39;99904.41;;;7.46;100.00
11830;BME280;5972;42.134;24.718;2024-03-08T00:55:07;99897.41;;;7.45;100.00
11830;BME280;5972;42.134;24.718;2024-03-08T00:57:36;99891.44;;;7.57;100.00
11830;BME280;5972;42.134;24.718;2024-03-08T01:00:05;99883.31;;;7.48;100.00
11830;BME280;5972;42.134;24.718;2024-03-08T01:02:38;99894.44;;;7.46;100.00
11830;BME280;5972;42.134;24.718;2024-03-08T01:05:06;99884.91;;;7.49;100.00
11830;BME280;5972;42.134;24.718;2024-03-08T01:07:33;99888.41;;;7.58;100.00
11830;BME280;5972;42.134;24.718;2024-03-08T01:10:00;99895.97;;;7.47;100.00
11830;BME280;5972;42.134;24.718;2024-03-08T01:12:28;99895.97;;;7.47;100.00
11830;BME280;5972;42.134;24.718;2024-03-08T01:14:55;99891.25;;;7.44;100.00
11830;BME280;5972;42.134;24.718;2024-03-08T01:17:23;99879.53;;;7.40;100.00
11830;BME280;5972;42.134;24.718;2024-03-08T01:19:51;99895.03;;;7.35;100.00
11830;BME280;5972;42.134;24.718;2024-03-08T01:22:18;99885.50;;;7.37;100.00
11830;BME280;5972;42.134;24.718;2024-03-08T01:24:45;99885.22;;;7.47;100.00
11830;BME280;5972;42.134;24.718;2024-03-08T01:27:12;99880.47;;;7.44;100.00
11830;BME280;5972;42.134;24.718;2024-03-08T01:29:40;99889.81;;;7.38;100.00
11830;BME280;5972;42.134;24.718;2024-03-08T01:32:07;99889.94;;;7.33;100.00
11830;BME280;5972;42.134;24.718;2024-03-08T01:34:34;99897.53;;;7.31;100.00
11830;BME280;5972;42.134;24.718;2024-03-08T01:37:02;99888.84;;;7.34;100.00
11830;BME280;5972;42.134;24.718;2024-03-08T01:39:29;99901.72;;;7.55;100.00
11830;BME280;5972;42.134;24.718;2024-03-08T01:41:57;99893.28;;;7.39;100.00
11830;BME280;5972;42.134;24.718;2024-03-08T01:44:24;99897.09;;;7.38;100.00
11830;BME280;5972;42.134;24.718;2024-03-08T01:46:52;99877.09;;;7.22;100.00
11830;BME280;5972;42.134;24.718;2024-03-08T01:49:20;99884.41;;;7.38;100.00
11830;BME280;5972;42.134;24.718;2024-03-08T01:51:49;99902.31;;;7.34;100.00
11830;BME280;5972;42.134;24.718;2024-03-08T01:54:19;99893.22;;;7.13;100.00
11830;BME280;5972;42.134;24.718;2024-03-08T01:56:47;99898.97;;;7.37;100.00
11830;BME280;5972;42.134;24.718;2024-03-08T01:59:15;99897.06;;;7.29;100.00
11830;BME280;5972;42.134;24.718;2024-03-08T02:01:42;99887.09;;;7.30;100.00
11830;BME280;5972;42.134;24.718;2024-03-08T02:04:10;99893.91;;;7.36;100.00
11830;BME280;5972;42.134;24.718;2024-03-08T02:06:37;99873.91;;;7.11;100.00
11830;BME280;5972;42.134;24.718;2024-03-08T02:09:05;99893.25;;;7.30;100.00
11830;BME280;5972;42.134;24.718;2024-03-08T02:11:34;99904.16;;;7.25;100.00
11830;BME280;5972;42.134;24.718;2024-03-08T02:14:02;99898.47;;;7.18;100.00
11830;BME280;5972;42.134;24.718;2024-03-08T02:16:29;99899.28;;;7.27;100.00
11830;BME280;5972;42.134;24.718;2024-03-08T02:18:56;99900.34;;;7.18;100.00
11830;BME280;5972;42.134;24.718;2024-03-08T02:21:25;99905.09;;;7.12;100.00
11830;BME280;5972;42.134;24.718;2024-03-08T02:23:52;99892.59;;;7.16;100.00
11830;BME280;5972;42.134;24.718;2024-03-08T02:26:19;99897.97;;;7.25;100.00
11830;BME280;5972;42.134;24.718;2024-03-08T02:28:46;99900.03;;;7.19;100.00
11830;BME280;5972;42.134;24.718;2024-03-08T02:31:15;99897.63;;;7.09;100.00
11830;BME280;5972;42.134;24.718;2024-03-08T02:33:42;99896.66;;;7.05;100.00
11830;BME280;5972;42.134;24.718;2024-03-08T02:36:09;99897.25;;;6.93;100.00
11830;BME280;5972;42.134;24.718;2024-03-08T02:38:37;99903.78;;;7.09;100.00
11830;BME280;5972;42.134;24.718;2024-03-08T02:41:06;99900.16;;;7.14;100.00
11830;BME280;5972;42.134;24.718;2024-03-08T02:43:34;99901.75;;;7.15;100.00
11830;BME280;5972;42.134;24.718;2024-03-08T02:46:01;99907.50;;;7.22;100.00
11830;BME280;5972;42.134;24.718;2024-03-08T02:48:28;99893.03;;;7.09;100.00
11830;BME280;5972;42.134;24.718;2024-03-08T02:50:56;99904.44;;;7.15;100.00
11830;BME280;5972;42.134;24.718;2024-03-08T02:53:23;99903.06;;;7.26;100.00
11830;BME280;5972;42.134;24.718;2024-03-08T02:55:52;99892.38;;;7.04;100.00
11830;BME280;5972;42.134;24.718;2024-03-08T02:58:20;99908.25;;;7.14;100.00
11830;BME280;5972;42.134;24.718;2024-03-08T03:00:47;99899.88;;;7.16;100.00
11830;BME280;5972;42.134;24.718;2024-03-08T03:03:15;99904.81;;;7.22;100.00
11830;BME280;5972;42.134;24.718;2024-03-08T03:05:42;99907.94;;;7.16;100.00
11830;BME280;5972;42.134;24.718;2024-03-08T03:08:09;99904.63;;;6.79;100.00
11830;BME280;5972;42.134;24.718;2024-03-08T03:10:37;99905.88;;;6.82;100.00
11830;BME280;5972;42.134;24.718;2024-03-08T03:13:05;99909.91;;;6.93;100.00
11830;BME280;5972;42.134;24.718;2024-03-08T03:15:33;99912.88;;;6.91;100.00
11830;BME280;5972;42.134;24.718;2024-03-08T03:18:02;99916.78;;;6.77;100.00
11830;BME280;5972;42.134;24.718;2024-03-08T03:20:29;99912.63;;;6.71;100.00
11830;BME280;5972;42.134;24.718;2024-03-08T03:22:58;99923.38;;;6.71;100.00
11830;BME280;5972;42.134;24.718;2024-03-08T03:25:27;99900.38;;;6.56;100.00
11830;BME280;5972;42.134;24.718;2024-03-08T03:27:59;99916.97;;;6.58;100.00
11830;BME280;5972;42.134;24.718;2024-03-08T03:30:28;99915.75;;;6.64;100.00
11830;BME280;5972;42.134;24.718;2024-03-08T03:32:59;99924.72;;;6.82;100.00
11830;BME280;5972;42.134;24.718;2024-03-08T03:35:27;99926.72;;;6.67;100.00
11830;BME280;5972;42.134;24.718;2024-03-08T03:37:54;99928.53;;;6.58;100.00
11830;BME280;5972;42.134;24.718;2024-03-08T03:40:31;99930.34;;;6.41;100.00
11830;BME280;5972;42.134;24.718;2024-03-08T03:42:58;99907.28;;;6.26;100.00
11830;BME280;5972;42.134;24.718;2024-03-08T03:45:26;99920.13;;;6.29;100.00
11830;BME280;5972;42.134;24.718;2024-03-08T03:47:54;99927.41;;;6.51;100.00
11830;BME280;5972;42.134;24.718;2024-03-08T03:50:21;99940.50;;;6.52;100.00
11830;BME280;5972;42.134;24.718;2024-03-08T03:52:49;99938.16;;;6.51;100.00
11830;BME280;5972;42.134;24.718;2024-03-08T03:55:16;99938.75;;;6.48;100.00
11830;BME280;5972;42.134;24.718;2024-03-08T03:57:43;99944.13;;;6.48;100.00
11830;BME280;5972;42.134;24.718;2024-03-08T04:00:12;99940.22;;;6.54;100.00
11830;BME280;5972;42.134;24.718;2024-03-08T04:02:40;99942.59;;;6.55;100.00
11830;BME280;5972;42.134;24.718;2024-03-08T04:05:09;99949.16;;;6.63;100.00
11830;BME280;5972;42.134;24.718;2024-03-08T04:07:37;99940.09;;;6.59;100.00
11830;BME280;5972;42.134;24.718;2024-03-08T04:10:06;99945.00;;;6.57;100.00
11830;BME280;5972;42.134;24.718;2024-03-08T04:12:33;99947.34;;;6.58;100.00
11830;BME280;5972;42.134;24.718;2024-03-08T04:15:00;99947.97;;;6.55;100.00
11830;BME280;5972;42.134;24.718;2024-03-08T04:17:27;99948.53;;;6.44;100.00
11830;BME280;5972;42.134;24.718;2024-03-08T04:19:54;99943.88;;;6.36;100.00
11830;BME280;5972;42.134;24.718;2024-03-08T04:22:23;99946.69;;;6.31;100.00
11830;BME280;5972;42.134;24.718;2024-03-08T04:24:50;99948.78;;;6.34;100.00
11830;BME280;5972;42.134;24.718;2024-03-08T04:27:17;99941.44;;;6.25;100.00
11830;BME280;5972;42.134;24.718;2024-03-08T04:29:44;99949.19;;;6.27;100.00
11830;BME280;5972;42.134;24.718;2024-03-08T04:32:12;99948.94;;;6.37;100.00
11830;BME280;5972;42.134;24.718;2024-03-08T04:34:39;99928.06;;;6.12;100.00
11830;BME280;5972;42.134;24.718;2024-03-08T04:37:06;99954.50;;;6.18;100.00
11830;BME280;5972;42.134;24.718;2024-03-08T04:39:37;99959.63;;;6.06;100.00
11830;BME280;5972;42.134;24.718;2024-03-08T04:42:05;99963.66;;;6.17;100.00
11830;BME280;5972;42.134;24.718;2024-03-08T04:44:35;99959.41;;;6.03;100.00
11830;BME280;5972;42.134;24.718;2024-03-08T04:47:03;99965.69;;;5.98;100.00
11830;BME280;5972;42.134;24.718;2024-03-08T04:49:31;99929.31;;;5.78;100.00
11830;BME280;5972;42.134;24.718;2024-03-08T04:52:01;99968.25;;;6.17;100.00
11830;BME280;5972;42.134;24.718;2024-03-08T04:54:29;99965.91;;;6.02;100.00
11830;BME280;5972;42.134;24.718;2024-03-08T04:56:57;99975.16;;;5.96;100.00
11830;BME280;5972;42.134;24.718;2024-03-08T04:59:25;99972.47;;;5.96;100.00
11830;BME280;5972;42.134;24.718;2024-03-08T05:01:52;99961.06;;;5.90;100.00
11830;BME280;5972;42.134;24.718;2024-03-08T05:04:19;99972.25;;;5.92;100.00
11830;BME280;5972;42.134;24.718;2024-03-08T05:06:46;99975.97;;;5.96;100.00
11830;BME280;5972;42.134;24.718;2024-03-08T05:09:14;99973.63;;;6.03;100.00
11830;BME280;5972;42.134;24.718;2024-03-08T05:11:42;99974.53;;;5.99;100.00
11830;BME280;5972;42.134;24.718;2024-03-08T05:14:10;99982.31;;;6.00;100.00
11830;BME280;5972;42.134;24.718;2024-03-08T05:16:40;99983.09;;;6.01;100.00
11830;BME280;5972;42.134;24.718;2024-03-08T05:19:07;99989.88;;;5.98;100.00
11830;BME280;5972;42.134;24.718;2024-03-08T05:21:34;99990.84;;;6.02;100.00
11830;BME280;5972;42.134;24.718;2024-03-08T05:24:01;99983.19;;;5.82;100.00
11830;BME280;5972;42.134;24.718;2024-03-08T05:26:28;99997.22;;;6.06;100.00
11830;BME280;5972;42.134;24.718;2024-03-08T05:28:56;99995.69;;;6.14;100.00
11830;BME280;5972;42.134;24.718;2024-03-08T05:31:25;100007.66;;;6.08;100.00
11830;BME280;5972;42.134;24.718;2024-03-08T05:33:53;100013.53;;;6.10;100.00
11830;BME280;5972;42.134;24.718;2024-03-08T05:36:21;99998.44;;;6.00;100.00
11830;BME280;5972;42.134;24.718;2024-03-08T05:38:48;100008.28;;;5.91;100.00
11830;BME280;5972;42.134;24.718;2024-03-08T05:41:16;100016.94;;;6.02;100.00
11830;BME280;5972;42.134;24.718;2024-03-08T05:43:44;100017.22;;;6.00;100.00
11830;BME280;5972;42.134;24.718;2024-03-08T05:46:15;100020.19;;;6.12;100.00
11830;BME280;5972;42.134;24.718;2024-03-08T05:48:45;100020.78;;;6.23;100.00
11830;BME280;5972;42.134;24.718;2024-03-08T05:51:12;100022.16;;;6.20;100.00
11830;BME280;5972;42.134;24.718;2024-03-08T05:53:39;100029.13;;;6.08;100.00
11830;BME280;5972;42.134;24.718;2024-03-08T05:56:06;100010.31;;;6.21;100.00
11830;BME280;5972;42.134;24.718;2024-03-08T05:58:35;100030.31;;;6.15;100.00
11830;BME280;5972;42.134;24.718;2024-03-08T06:01:02;100033.53;;;6.17;100.00
11830;BME280;5972;42.134;24.718;2024-03-08T06:03:33;100030.00;;;6.31;100.00
11830;BME280;5972;42.134;24.718;2024-03-08T06:06:01;100026.56;;;6.16;100.00
11830;BME280;5972;42.134;24.718;2024-03-08T06:08:28;100026.84;;;6.15;100.00
11830;BME280;5972;42.134;24.718;2024-03-08T06:10:56;100037.19;;;6.08;100.00
11830;BME280;5972;42.134;24.718;2024-03-08T06:13:24;100048.66;;;6.00;100.00
11830;BME280;5972;42.134;24.718;2024-03-08T06:15:51;100018.44;;;5.94;100.00
11830;BME280;5972;42.134;24.718;2024-03-08T06:18:18;100041.69;;;6.12;100.00
11830;BME280;5972;42.134;24.718;2024-03-08T06:20:46;100048.25;;;6.06;100.00
11830;BME280;5972;42.134;24.718;2024-03-08T06:23:14;100047.03;;;6.26;100.00
11830;BME280;5972;42.134;24.718;2024-03-08T06:25:43;100047.75;;;6.18;100.00
11830;BME280;5972;42.134;24.718;2024-03-08T06:28:10;100050.59;;;6.35;100.00
11830;BME280;5972;42.134;24.718;2024-03-08T06:30:37;100054.56;;;6.38;100.00
11830;BME280;5972;42.134;24.718;2024-03-08T06:33:04;100058.84;;;6.25;100.00
11830;BME280;5972;42.134;24.718;2024-03-08T06:35:32;100059.03;;;6.42;100.00
11830;BME280;5972;42.134;24.718;2024-03-08T06:38:03;100054.53;;;6.51;100.00
11830;BME280;5972;42.134;24.718;2024-03-08T06:40:32;100060.09;;;6.55;100.00
11830;BME280;5972;42.134;24.718;2024-03-08T06:42:58;100054.84;;;6.72;100.00
11830;BME280;5972;42.134;24.718;2024-03-08T06:45:25;100062.53;;;6.65;100.00
11830;BME280;5972;42.134;24.718;2024-03-08T06:47:54;100065.19;;;6.56;100.00
11830;BME280;5972;42.134;24.718;2024-03-08T06:50:21;100058.38;;;6.59;100.00
11830;BME280;5972;42.134;24.718;2024-03-08T06:52:48;100065.75;;;6.67;100.00
11830;BME280;5972;42.134;24.718;2024-03-08T06:55:19;100024.03;;;6.34;100.00
11830;BME280;5972;42.134;24.718;2024-03-08T06:57:47;100017.75;;;6.24;100.00
11830;BME280;5972;42.134;24.718;2024-03-08T07:00:15;100072.09;;;6.71;100.00
11830;BME280;5972;42.134;24.718;2024-03-08T07:02:46;100072.25;;;6.75;100.00
11830;BME280;5972;42.134;24.718;2024-03-08T07:05:14;100071.34;;;6.57;100.00
11830;BME280;5972;42.134;24.718;2024-03-08T07:07:42;100073.16;;;6.48;100.00
11830;BME280;5972;42.134;24.718;2024-03-08T07:10:09;100069.38;;;6.49;100.00
11830;BME280;5972;42.134;24.718;2024-03-08T07:12:40;100070.31;;;6.66;100.00
11830;BME280;5972;42.134;24.718;2024-03-08T07:15:09;100077.53;;;6.57;100.00
11830;BME280;5972;42.134;24.718;2024-03-08T07:17:39;100073.31;;;6.65;100.00
11830;BME280;5972;42.134;24.718;2024-03-08T07:20:06;100078.38;;;6.66;100.00
11830;BME280;5972;42.134;24.718;2024-03-08T07:22:37;100068.19;;;6.77;100.00
11830;BME280;5972;42.134;24.718;2024-03-08T07:25:05;100081.56;;;6.68;100.00
11830;BME280;5972;42.134;24.718;2024-03-08T07:27:46;100077.09;;;6.86;100.00
11830;BME280;5972;42.134;24.718;2024-03-08T07:30:14;100083.69;;;6.80;100.00
11830;BME280;5972;42.134;24.718;2024-03-08T07:33:04;100081.88;;;6.89;100.00
11830;BME280;5972;42.134;24.718;2024-03-08T07:35:32;100089.28;;;6.84;100.00
11830;BME280;5972;42.134;24.718;2024-03-08T07:38:03;100085.78;;;6.83;100.00
11830;BME280;5972;42.134;24.718;2024-03-08T07:40:31;100086.75;;;6.65;100.00
11830;BME280;5972;42.134;24.718;2024-03-08T07:42:58;100084.84;;;6.65;100.00
11830;BME280;5972;42.134;24.718;2024-03-08T07:45:27;100040.91;;;6.48;100.00
11830;BME280;5972;42.134;24.718;2024-03-08T07:47:54;100081.94;;;6.76;100.00
11830;BME280;5972;42.134;24.718;2024-03-08T07:50:21;100090.81;;;6.98;100.00
11830;BME280;5972;42.134;24.718;2024-03-08T07:52:48;100088.53;;;7.14;100.00
11830;BME280;5972;42.134;24.718;2024-03-08T07:55:15;100089.34;;;7.15;100.00
11830;BME280;5972;42.134;24.718;2024-03-08T07:57:42;100085.06;;;7.14;100.00
11830;BME280;5972;42.134;24.718;2024-03-08T08:00:10;100082.25;;;7.19;100.00
11830;BME280;5972;42.134;24.718;2024-03-08T08:02:44;100093.69;;;7.24;100.00
11830;BME280;5972;42.134;24.718;2024-03-08T08:05:12;100097.84;;;7.08;100.00
11830;BME280;5972;42.134;24.718;2024-03-08T08:07:39;100089.75;;;7.08;100.00
11830;BME280;5972;42.134;24.718;2024-03-08T08:10:09;100084.84;;;7.32;100.00
11830;BME280;5972;42.134;24.718;2024-03-08T08:12:42;100095.00;;;7.58;100.00
11830;BME280;5972;42.134;24.718;2024-03-08T08:15:09;100103.97;;;7.53;100.00
11830;BME280;5972;42.134;24.718;2024-03-08T08:17:36;100100.94;;;7.46;100.00
11830;BME280;5972;42.134;24.718;2024-03-08T08:20:06;100099.94;;;7.42;100.00
11830;BME280;5972;42.134;24.718;2024-03-08T08:22:33;100102.34;;;7.43;100.00
11830;BME280;5972;42.134;24.718;2024-03-08T08:25:00;100105.00;;;7.66;100.00
11830;BME280;5972;42.134;24.718;2024-03-08T08:27:28;100099.09;;;7.64;100.00
11830;BME280;5972;42.134;24.718;2024-03-08T08:29:54;100104.50;;;7.64;100.00
11830;BME280;5972;42.134;24.718;2024-03-08T08:32:22;100103.22;;;7.61;100.00
11830;BME280;5972;42.134;24.718;2024-03-08T08:34:49;100098.44;;;7.58;100.00
11830;BME280;5972;42.134;24.718;2024-03-08T08:37:17;100085.88;;;7.45;100.00
11830;BME280;5972;42.134;24.718;2024-03-08T08:39:44;100105.28;;;7.64;100.00
11830;BME280;5972;42.134;24.718;2024-03-08T08:42:11;100109.72;;;7.60;100.00
11830;BME280;5972;42.134;24.718;2024-03-08T08:44:38;100081.75;;;7.47;100.00
11830;BME280;5972;42.134;24.718;2024-03-08T08:47:06;100102.47;;;7.69;100.00
11830;BME280;5972;42.134;24.718;2024-03-08T08:49:33;100101.50;;;7.96;100.00
11830;BME280;5972;42.134;24.718;2024-03-08T08:52:00;100095.69;;;7.80;100.00
11830;BME280;5972;42.134;24.718;2024-03-08T08:54:30;100092.50;;;7.70;100.00
11830;BME280;5972;42.134;24.718;2024-03-08T08:56:57;100103.03;;;7.88;100.00
11830;BME280;5972;42.134;24.718;2024-03-08T08:59:24;100098.28;;;7.85;100.00
11830;BME280;5972;42.134;24.718;2024-03-08T09:01:51;100105.00;;;8.05;100.00
11830;BME280;5972;42.134;24.718;2024-03-08T09:04:19;100102.44;;;8.00;100.00
11830;BME280;5972;42.134;24.718;2024-03-08T09:06:48;100094.22;;;8.05;100.00
11830;BME280;5972;42.134;24.718;2024-03-08T09:09:15;100094.56;;;8.12;100.00
11830;BME280;5972;42.134;24.718;2024-03-08T09:11:44;100097.88;;;8.09;100.00
11830;BME280;5972;42.134;24.718;2024-03-08T09:14:11;100089.03;;;8.17;100.00
11830;BME280;5972;42.134;24.718;2024-03-08T09:16:39;100096.81;;;8.19;100.00
11830;BME280;5972;42.134;24.718;2024-03-08T09:19:06;100086.19;;;8.22;100.00
11830;BME280;5972;42.134;24.718;2024-03-08T09:21:36;100086.66;;;8.24;100.00
11830;BME280;5972;42.134;24.718;2024-03-08T09:24:05;100094.72;;;8.16;100.00
11830;BME280;5972;42.134;24.718;2024-03-08T09:26:32;100099.66;;;8.22;100.00
11830;BME280;5972;42.134;24.718;2024-03-08T09:29:01;100109.38;;;8.32;100.00
11830;BME280;5972;42.134;24.718;2024-03-08T09:31:28;100106.72;;;8.41;100.00
11830;BME280;5972;42.134;24.718;2024-03-08T09:33:55;100109.19;;;8.28;100.00
11830;BME280;5972;42.134;24.718;2024-03-08T09:36:22;100110.06;;;8.55;100.00
11830;BME280;5972;42.134;24.718;2024-03-08T09:38:50;100107.44;;;8.24;100.00
11830;BME280;5972;42.134;24.718;2024-03-08T09:41:18;100110.22;;;8.41;100.00
11830;BME280;5972;42.134;24.718;2024-03-08T09:43:46;100091.50;;;8.62;100.00
11830;BME280;5972;42.134;24.718;2024-03-08T09:46:15;100113.09;;;8.79;100.00
11830;BME280;5972;42.134;24.718;2024-03-08T09:48:44;100104.84;;;8.84;100.00
11830;BME280;5972;42.134;24.718;2024-03-08T09:51:12;100102.31;;;8.96;100.00
11830;BME280;5972;42.134;24.718;2024-03-08T09:53:41;100102.75;;;9.15;100.00
11830;BME280;5972;42.134;24.718;2024-03-08T09:56:08;100104.66;;;9.15;100.00
11830;BME280;5972;42.134;24.718;2024-03-08T09:58:37;100100.41;;;8.97;100.00
11830;BME280;5972;42.134;24.718;2024-03-08T10:01:20;100101.00;;;8.51;100.00
11830;BME280;5972;42.134;24.718;2024-03-08T10:03:48;100108.00;;;8.52;100.00
11830;BME280;5972;42.134;24.718;2024-03-08T10:06:15;100102.13;;;8.75;100.00
11830;BME280;5972;42.134;24.718;2024-03-08T10:08:42;100088.19;;;8.91;100.00
11830;BME280;5972;42.134;24.718;2024-03-08T10:11:10;100093.88;;;9.06;100.00
11830;BME280;5972;42.134;24.718;2024-03-08T10:13:38;100097.03;;;9.08;100.00
11830;BME280;5972;42.134;24.718;2024-03-08T10:16:07;100095.44;;;9.16;100.00
11830;BME280;5972;42.134;24.718;2024-03-08T10:18:36;100079.28;;;8.90;100.00
11830;BME280;5972;42.134;24.718;2024-03-08T10:21:04;100095.47;;;9.07;100.00
11830;BME280;5972;42.134;24.718;2024-03-08T10:23:32;100092.13;;;9.19;100.00
11830;BME280;5972;42.134;24.718;2024-03-08T10:26:13;100090.78;;;9.42;100.00
11830;BME280;5972;42.134;24.718;2024-03-08T10:28:41;100100.19;;;9.28;100.00
11830;BME280;5972;42.134;24.718;2024-03-08T10:31:09;100073.50;;;9.26;100.00
11830;BME280;5972;42.134;24.718;2024-03-08T10:33:37;100092.84;;;9.45;100.00
11830;BME280;5972;42.134;24.718;2024-03-08T10:36:07;100072.09;;;9.03;100.00
11830;BME280;5972;42.134;24.718;2024-03-08T10:38:36;100084.03;;;9.19;100.00
11830;BME280;5972;42.134;24.718;2024-03-08T10:41:05;100083.50;;;9.26;100.00
11830;BME280;5972;42.134;24.718;2024-03-08T10:43:40;100074.69;;;9.54;100.00
11830;BME280;5972;42.134;24.718;2024-03-08T10:46:16;100070.75;;;9.43;100.00
11830;BME280;5972;42.134;24.718;2024-03-08T10:48:50;100060.47;;;9.28;100.00
11830;BME280;5972;42.134;24.718;2024-03-08T10:51:19;100068.28;;;9.30;100.00
11830;BME280;5972;42.134;24.718;2024-03-08T10:53:47;100063.22;;;9.66;100.00
11830;BME280;5972;42.134;24.718;2024-03-08T10:56:17;100063.88;;;9.63;100.00
11830;BME280;5972;42.134;24.718;2024-03-08T10:58:44;100071.97;;;9.63;100.00
11830;BME280;5972;42.134;24.718;2024-03-08T11:01:12;100074.03;;;9.66;100.00
11830;BME280;5972;42.134;24.718;2024-03-08T11:03:48;100072.97;;;9.88;100.00
11830;BME280;5972;42.134;24.718;2024-03-08T11:06:21;100059.63;;;9.91;100.00
11830;BME280;5972;42.134;24.718;2024-03-08T11:08:49;100057.72;;;10.21;100.00
11830;BME280;5972;42.134;24.718;2024-03-08T11:11:30;100050.34;;;10.51;100.00
11830;BME280;5972;42.134;24.718;2024-03-08T11:13:58;100058.00;;;10.49;100.00
11830;BME280;5972;42.134;24.718;2024-03-08T11:16:38;100067.47;;;10.64;100.00
11830;BME280;5972;42.134;24.718;2024-03-08T11:19:24;100052.91;;;10.89;100.00
11830;BME280;5972;42.134;24.718;2024-03-08T11:22:13;100057.63;;;11.13;100.00
11830;BME280;5972;42.134;24.718;2024-03-08T11:24:47;100054.13;;;11.12;100.00
11830;BME280;5972;42.134;24.718;2024-03-08T11:27:14;100056.03;;;11.12;100.00
11830;BME280;5972;42.134;24.718;2024-03-08T11:29:42;100053.69;;;11.22;100.00
11830;BME280;5972;42.134;24.718;2024-03-08T11:32:11;100046.38;;;10.90;100.00
11830;BME280;5972;42.134;24.718;2024-03-08T11:34:40;100051.41;;;11.12;100.00
11830;BME280;5972;42.134;24.718;2024-03-08T11:37:12;100056.94;;;11.16;100.00
11830;BME280;5972;42.134;24.718;2024-03-08T11:39:41;100047.41;;;11.31;100.00
11830;BME280;5972;42.134;24.718;2024-03-08T11:42:12;100056.25;;;11.64;100.00
11830;BME280;5972;42.134;24.718;2024-03-08T11:44:39;100052.22;;;12.19;100.00
11830;BME280;5972;42.134;24.718;2024-03-08T11:47:10;100060.09;;;12.36;100.00
11830;BME280;5972;42.134;24.718;2024-03-08T11:49:38;100051.69;;;11.44;100.00
11830;BME280;5972;42.134;24.718;2024-03-08T11:52:11;100051.41;;;12.18;100.00
11830;BME280;5972;42.134;24.718;2024-03-08T11:54:39;100040.03;;;12.00;100.00
11830;BME280;5972;42.134;24.718;2024-03-08T11:57:06;100040.81;;;11.77;100.00
11830;BME280;5972;42.134;24.718;2024-03-08T11:59:35;100041.91;;;10.53;100.00
11830;BME280;5972;42.134;24.718;2024-03-08T12:02:04;100044.16;;;11.49;100.00
11830;BME280;5972;42.134;24.718;2024-03-08T12:04:31;100029.81;;;11.61;100.00
11830;BME280;5972;42.134;24.718;2024-03-08T12:07:03;100032.69;;;12.01;100.00
11830;BME280;5972;42.134;24.718;2024-03-08T12:09:34;100030.00;;;12.53;100.00
11830;BME280;5972;42.134;24.718;2024-03-08T12:12:03;100033.13;;;13.11;100.00
11830;BME280;5972;42.134;24.718;2024-03-08T12:14:30;100039.00;;;12.05;100.00
11830;BME280;5972;42.134;24.718;2024-03-08T12:16:57;100031.31;;;12.07;100.00
11830;BME280;5972;42.134;24.718;2024-03-08T12:19:26;100024.78;;;11.84;100.00
11830;BME280;5972;42.134;24.718;2024-03-08T12:21:56;100033.47;;;11.77;100.00
11830;BME280;5972;42.134;24.718;2024-03-08T12:24:24;100025.88;;;11.71;100.00
11830;BME280;5972;42.134;24.718;2024-03-08T12:26:52;100019.16;;;11.32;100.00
11830;BME280;5972;42.134;24.718;2024-03-08T12:29:24;100013.25;;;11.05;100.00
11830;BME280;5972;42.134;24.718;2024-03-08T12:31:54;100019.41;;;11.39;100.00
11830;BME280;5972;42.134;24.718;2024-03-08T12:34:21;100022.44;;;11.37;100.00
11830;BME280;5972;42.134;24.718;2024-03-08T12:36:50;100022.97;;;10.53;100.00
11830;BME280;5972;42.134;24.718;2024-03-08T12:39:19;100012.63;;;10.88;100.00
11830;BME280;5972;42.134;24.718;2024-03-08T12:41:53;100013.44;;;10.67;100.00
11830;BME280;5972;42.134;24.718;2024-03-08T12:44:22;99995.72;;;10.58;100.00
11830;BME280;5972;42.134;24.718;2024-03-08T12:46:51;99999.41;;;10.53;100.00
11830;BME280;5972;42.134;24.718;2024-03-08T12:49:19;99999.81;;;10.43;100.00
11830;BME280;5972;42.134;24.718;2024-03-08T12:51:48;99997.91;;;10.23;100.00
11830;BME280;5972;42.134;24.718;2024-03-08T12:54:15;100003.69;;;10.33;100.00
11830;BME280;5972;42.134;24.718;2024-03-08T12:56:42;100006.00;;;9.93;100.00
11830;BME280;5972;42.134;24.718;2024-03-08T12:59:10;100007.09;;;10.01;100.00